sensor_id;sensor_type;location;lat;lon;timestamp;temperature;humidity
27647;DHT22;42229;51.230;6.240;2023-05-23T00:02:22;17.70;95.90
27647;DHT22;42229;51.230;6.240;2023-05-23T00:04:48;17.60;96.10
27647;DHT22;42229;51.230;6.240;2023-05-23T00:07:14;17.60;95.60
27647;DHT22;42229;51.230;6.240;2023-05-23T00:09:41;17.50;96.50
27647;DHT22;42229;51.230;6.240;2023-05-23T00:12:07;17.50;95.70
27647;DHT22;42229;51.230;6.240;2023-05-23T00:14:33;17.50;95.70
27647;DHT22;42229;51.230;6.240;2023-05-23T00:17:00;17.40;96.50
27647;DHT22;42229;51.230;6.240;2023-05-23T00:19:26;17.40;97.20
27647;DHT22;42229;51.230;6.240;2023-05-23T00:21:52;17.40;97.30
27647;DHT22;42229;51.230;6.240;2023-05-23T00:24:21;17.40;96.50
27647;DHT22;42229;51.230;6.240;2023-05-23T00:26:47;17.40;96.80
27647;DHT22;42229;51.230;6.240;2023-05-23T00:29:14;17.30;96.90
27647;DHT22;42229;51.230;6.240;2023-05-23T00:31:42;17.30;97.20
27647;DHT22;42229;51.230;6.240;2023-05-23T00:34:12;17.30;97.50
27647;DHT22;42229;51.230;6.240;2023-05-23T00:36:39;17.30;97.40
27647;DHT22;42229;51.230;6.240;2023-05-23T00:39:06;17.30;97.00
27647;DHT22;42229;51.230;6.240;2023-05-23T00:41:33;17.30;97.90
27647;DHT22;42229;51.230;6.240;2023-05-23T00:44:01;17.30;96.80
27647;DHT22;42229;51.230;6.240;2023-05-23T00:46:28;17.30;96.60
27647;DHT22;42229;51.230;6.240;2023-05-23T00:48:56;17.30;96.80
27647;DHT22;42229;51.230;6.240;2023-05-23T00:51:22;17.30;97.00
27647;DHT22;42229;51.230;6.240;2023-05-23T00:53:48;17.30;97.00
27647;DHT22;42229;51.230;6.240;2023-05-23T00:56:15;17.30;97.30
27647;DHT22;42229;51.230;6.240;2023-05-23T00:58:41;17.30;97.10
27647;DHT22;42229;51.230;6.240;2023-05-23T01:01:07;17.30;97.40
27647;DHT22;42229;51.230;6.240;2023-05-23T01:03:34;17.30;96.90
27647;DHT22;42229;51.230;6.240;2023-05-23T01:06:01;17.30;96.90
27647;DHT22;42229;51.230;6.240;2023-05-23T01:08:27;17.30;97.40
27647;DHT22;42229;51.230;6.240;2023-05-23T01:10:54;17.30;96.80
27647;DHT22;42229;51.230;6.240;2023-05-23T01:13:33;17.30;96.90
27647;DHT22;42229;51.230;6.240;2023-05-23T01:18:44;17.30;98.10
27647;DHT22;42229;51.230;6.240;2023-05-23T01:21:16;17.30;97.40
27647;DHT22;42229;51.230;6.240;2023-05-23T01:23:54;17.30;97.10
27647;DHT22;42229;51.230;6.240;2023-05-23T01:28:53;17.30;97.50
27647;DHT22;42229;51.230;6.240;2023-05-23T01:31:21;17.30;97.30
27647;DHT22;42229;51.230;6.240;2023-05-23T01:33:49;17.30;97.20
27647;DHT22;42229;51.230;6.240;2023-05-23T01:36:18;17.30;98.10
27647;DHT22;42229;51.230;6.240;2023-05-23T01:38:44;17.30;97.50
27647;DHT22;42229;51.230;6.240;2023-05-23T01:41:10;17.30;97.30
27647;DHT22;42229;51.230;6.240;2023-05-23T01:43:37;17.30;97.50
27647;DHT22;42229;51.230;6.240;2023-05-23T01:46:03;17.40;97.30
27647;DHT22;42229;51.230;6.240;2023-05-23T01:48:31;17.30;97.80
27647;DHT22;42229;51.230;6.240;2023-05-23T01:50:57;17.30;97.80
27647;DHT22;42229;51.230;6.240;2023-05-23T01:53:25;17.30;97.60
27647;DHT22;42229;51.230;6.240;2023-05-23T01:55:51;17.30;97.50
27647;DHT22;42229;51.230;6.240;2023-05-23T01:58:20;17.40;97.50
27647;DHT22;42229;51.230;6.240;2023-05-23T02:00:47;17.40;97.30
27647;DHT22;42229;51.230;6.240;2023-05-23T02:03:14;17.30;97.50
27647;DHT22;42229;51.230;6.240;2023-05-23T02:05:40;17.30;97.60
27647;DHT22;42229;51.230;6.240;2023-05-23T02:08:07;17.40;97.80
27647;DHT22;42229;51.230;6.240;2023-05-23T02:10:33;17.40;97.90
27647;DHT22;42229;51.230;6.240;2023-05-23T02:13:00;17.30;98.20
27647;DHT22;42229;51.230;6.240;2023-05-23T02:15:27;17.30;97.90
27647;DHT22;42229;51.230;6.240;2023-05-23T02:17:53;17.30;98.10
27647;DHT22;42229;51.230;6.240;2023-05-23T02:20:20;17.30;98.80
27647;DHT22;42229;51.230;6.240;2023-05-23T02:22:47;17.30;98.10
27647;DHT22;42229;51.230;6.240;2023-05-23T02:25:13;17.30;98.30
27647;DHT22;42229;51.230;6.240;2023-05-23T02:27:40;17.30;98.90
27647;DHT22;42229;51.230;6.240;2023-05-23T02:30:07;17.30;98.70
27647;DHT22;42229;51.230;6.240;2023-05-23T02:32:33;17.30;98.50
27647;DHT22;42229;51.230;6.240;2023-05-23T02:35:00;17.30;98.70
27647;DHT22;42229;51.230;6.240;2023-05-23T02:37:27;17.20;98.80
27647;DHT22;42229;51.230;6.240;2023-05-23T02:39:54;17.20;98.40
27647;DHT22;42229;51.230;6.240;2023-05-23T02:42:21;17.20;98.40
27647;DHT22;42229;51.230;6.240;2023-05-23T02:44:47;17.20;98.90
27647;DHT22;42229;51.230;6.240;2023-05-23T02:47:13;17.20;98.90
27647;DHT22;42229;51.230;6.240;2023-05-23T02:49:40;17.10;98.40
27647;DHT22;42229;51.230;6.240;2023-05-23T02:52:06;17.20;98.90
27647;DHT22;42229;51.230;6.240;2023-05-23T02:54:32;17.10;98.80
27647;DHT22;42229;51.230;6.240;2023-05-23T02:56:59;17.10;98.30
27647;DHT22;42229;51.230;6.240;2023-05-23T02:59:26;17.10;99.10
27647;DHT22;42229;51.230;6.240;2023-05-23T03:01:52;17.10;98.80
27647;DHT22;42229;51.230;6.240;2023-05-23T03:04:18;17.10;98.90
27647;DHT22;42229;51.230;6.240;2023-05-23T03:06:45;17.10;98.80
27647;DHT22;42229;51.230;6.240;2023-05-23T03:09:13;17.00;98.80
27647;DHT22;42229;51.230;6.240;2023-05-23T03:11:49;17.00;99.40
27647;DHT22;42229;51.230;6.240;2023-05-23T03:14:16;17.00;98.80
27647;DHT22;42229;51.230;6.240;2023-05-23T03:16:42;17.00;98.80
27647;DHT22;42229;51.230;6.240;2023-05-23T03:19:08;17.00;98.80
27647;DHT22;42229;51.230;6.240;2023-05-23T03:21:35;16.90;98.60
27647;DHT22;42229;51.230;6.240;2023-05-23T03:24:01;16.90;98.50
27647;DHT22;42229;51.230;6.240;2023-05-23T03:26:29;16.90;98.70
27647;DHT22;42229;51.230;6.240;2023-05-23T03:28:55;16.90;98.50
27647;DHT22;42229;51.230;6.240;2023-05-23T03:31:22;16.90;98.90
27647;DHT22;42229;51.230;6.240;2023-05-23T03:33:48;16.90;99.40
27647;DHT22;42229;51.230;6.240;2023-05-23T03:36:15;16.80;99.00
27647;DHT22;42229;51.230;6.240;2023-05-23T03:38:41;16.80;98.90
27647;DHT22;42229;51.230;6.240;2023-05-23T03:41:08;16.80;98.90
27647;DHT22;42229;51.230;6.240;2023-05-23T03:43:34;16.80;99.00
27647;DHT22;42229;51.230;6.240;2023-05-23T03:46:00;16.80;99.10
27647;DHT22;42229;51.230;6.240;2023-05-23T03:48:26;16.80;99.10
27647;DHT22;42229;51.230;6.240;2023-05-23T03:50:55;16.80;99.40
27647;DHT22;42229;51.230;6.240;2023-05-23T03:53:21;16.80;98.80
27647;DHT22;42229;51.230;6.240;2023-05-23T03:55:48;16.80;99.20
27647;DHT22;42229;51.230;6.240;2023-05-23T03:58:14;16.80;99.70
27647;DHT22;42229;51.230;6.240;2023-05-23T04:00:43;16.70;99.30
27647;DHT22;42229;51.230;6.240;2023-05-23T04:03:11;16.70;99.10
27647;DHT22;42229;51.230;6.240;2023-05-23T04:05:40;16.70;99.10
27647;DHT22;42229;51.230;6.240;2023-05-23T04:08:06;16.70;99.40
27647;DHT22;42229;51.230;6.240;2023-05-23T04:10:33;16.70;99.20
27647;DHT22;42229;51.230;6.240;2023-05-23T04:12:59;16.70;99.50
27647;DHT22;42229;51.230;6.240;2023-05-23T04:15:26;16.70;99.10
27647;DHT22;42229;51.230;6.240;2023-05-23T04:18:04;16.70;99.70
27647;DHT22;42229;51.230;6.240;2023-05-23T04:20:32;16.70;99.90
27647;DHT22;42229;51.230;6.240;2023-05-23T04:22:59;16.60;99.90
27647;DHT22;42229;51.230;6.240;2023-05-23T04:25:26;16.60;99.90
27647;DHT22;42229;51.230;6.240;2023-05-23T04:28:05;16.60;99.50
27647;DHT22;42229;51.230;6.240;2023-05-23T04:30:32;16.60;99.70
27647;DHT22;42229;51.230;6.240;2023-05-23T04:32:59;16.60;99.80
27647;DHT22;42229;51.230;6.240;2023-05-23T04:35:28;16.60;99.50
27647;DHT22;42229;51.230;6.240;2023-05-23T04:37:54;16.60;99.80
27647;DHT22;42229;51.230;6.240;2023-05-23T04:40:23;16.50;99.80
27647;DHT22;42229;51.230;6.240;2023-05-23T04:43:07;16.60;99.60
27647;DHT22;42229;51.230;6.240;2023-05-23T04:45:46;16.50;99.90
27647;DHT22;42229;51.230;6.240;2023-05-23T04:48:33;16.50;99.90
27647;DHT22;42229;51.230;6.240;2023-05-23T04:51:01;16.50;99.90
27647;DHT22;42229;51.230;6.240;2023-05-23T04:53:31;16.50;99.90
27647;DHT22;42229;51.230;6.240;2023-05-23T04:55:58;16.50;99.90
27647;DHT22;42229;51.230;6.240;2023-05-23T04:58:24;16.50;99.90
27647;DHT22;42229;51.230;6.240;2023-05-23T05:00:55;16.50;99.90
27647;DHT22;42229;51.230;6.240;2023-05-23T05:03:21;16.60;99.90
27647;DHT22;42229;51.230;6.240;2023-05-23T05:05:51;16.50;99.90
27647;DHT22;42229;51.230;6.240;2023-05-23T05:08:18;16.60;99.90
27647;DHT22;42229;51.230;6.240;2023-05-23T05:10:48;16.60;99.90
27647;DHT22;42229;51.230;6.240;2023-05-23T05:13:16;16.60;99.90
27647;DHT22;42229;51.230;6.240;2023-05-23T05:15:47;16.60;99.90
27647;DHT22;42229;51.230;6.240;2023-05-23T05:18:13;16.60;99.90
27647;DHT22;42229;51.230;6.240;2023-05-23T05:20:40;16.60;99.90
27647;DHT22;42229;51.230;6.240;2023-05-23T05:23:06;16.60;99.90
27647;DHT22;42229;51.230;6.240;2023-05-23T05:25:34;16.60;99.90
27647;DHT22;42229;51.230;6.240;2023-05-23T05:28:03;16.60;99.90
27647;DHT22;42229;51.230;6.240;2023-05-23T05:30:36;16.60;99.90
27647;DHT22;42229;51.230;6.240;2023-05-23T05:33:04;16.60;99.90
27647;DHT22;42229;51.230;6.240;2023-05-23T05:35:31;16.60;99.90
27647;DHT22;42229;51.230;6.240;2023-05-23T05:37:58;16.60;99.90
27647;DHT22;42229;51.230;6.240;2023-05-23T05:40:24;16.60;99.90
27647;DHT22;42229;51.230;6.240;2023-05-23T05:42:50;16.60;99.90
27647;DHT22;42229;51.230;6.240;2023-05-23T05:45:17;16.50;99.90
27647;DHT22;42229;51.230;6.240;2023-05-23T05:47:45;16.60;99.90
27647;DHT22;42229;51.230;6.240;2023-05-23T05:50:11;16.60;99.90
27647;DHT22;42229;51.230;6.240;2023-05-23T05:52:38;16.60;99.90
27647;DHT22;42229;51.230;6.240;2023-05-23T05:55:06;16.50;99.90
27647;DHT22;42229;51.230;6.240;2023-05-23T05:57:34;16.60;99.90
27647;DHT22;42229;51.230;6.240;2023-05-23T06:00:04;16.60;99.90
27647;DHT22;42229;51.230;6.240;2023-05-23T06:02:44;16.60;99.90
27647;DHT22;42229;51.230;6.240;2023-05-23T06:05:21;16.60;99.90
27647;DHT22;42229;51.230;6.240;2023-05-23T06:07:48;16.60;99.90
27647;DHT22;42229;51.230;6.240;2023-05-23T06:10:15;16.70;99.90
27647;DHT22;42229;51.230;6.240;2023-05-23T06:12:42;16.70;99.90
27647;DHT22;42229;51.230;6.240;2023-05-23T06:15:10;16.70;99.90
27647;DHT22;42229;51.230;6.240;2023-05-23T06:17:39;16.70;99.90
27647;DHT22;42229;51.230;6.240;2023-05-23T06:20:05;16.70;99.90
27647;DHT22;42229;51.230;6.240;2023-05-23T06:22:33;16.70;99.90
27647;DHT22;42229;51.230;6.240;2023-05-23T06:25:00;16.70;99.90
27647;DHT22;42229;51.230;6.240;2023-05-23T06:27:26;16.70;99.90
27647;DHT22;42229;51.230;6.240;2023-05-23T06:29:52;16.80;99.90
27647;DHT22;42229;51.230;6.240;2023-05-23T06:32:18;16.70;99.90
27647;DHT22;42229;51.230;6.240;2023-05-23T06:34:45;16.70;99.90
27647;DHT22;42229;51.230;6.240;2023-05-23T06:37:11;16.70;99.90
27647;DHT22;42229;51.230;6.240;2023-05-23T06:39:37;16.80;99.90
27647;DHT22;42229;51.230;6.240;2023-05-23T06:42:03;16.70;99.90
27647;DHT22;42229;51.230;6.240;2023-05-23T06:44:46;16.70;99.90
27647;DHT22;42229;51.230;6.240;2023-05-23T06:47:12;16.70;99.90
27647;DHT22;42229;51.230;6.240;2023-05-23T06:49:38;16.70;99.90
27647;DHT22;42229;51.230;6.240;2023-05-23T06:52:05;16.70;99.90
27647;DHT22;42229;51.230;6.240;2023-05-23T06:54:31;16.70;99.90
27647;DHT22;42229;51.230;6.240;2023-05-23T06:56:57;16.60;99.90
27647;DHT22;42229;51.230;6.240;2023-05-23T06:59:24;16.60;99.90
27647;DHT22;42229;51.230;6.240;2023-05-23T07:01:54;16.60;99.90
27647;DHT22;42229;51.230;6.240;2023-05-23T07:04:22;16.50;99.90
27647;DHT22;42229;51.230;6.240;2023-05-23T07:06:49;16.50;99.90
27647;DHT22;42229;51.230;6.240;2023-05-23T07:09:15;16.50;99.90
27647;DHT22;42229;51.230;6.240;2023-05-23T07:11:42;16.50;99.90
27647;DHT22;42229;51.230;6.240;2023-05-23T07:14:08;16.60;99.90
27647;DHT22;42229;51.230;6.240;2023-05-23T07:16:43;16.50;99.90
27647;DHT22;42229;51.230;6.240;2023-05-23T07:19:10;16.50;99.90
27647;DHT22;42229;51.230;6.240;2023-05-23T07:21:43;16.50;99.90
27647;DHT22;42229;51.230;6.240;2023-05-23T07:24:11;16.50;99.90
27647;DHT22;42229;51.230;6.240;2023-05-23T07:26:37;16.50;99.90
27647;DHT22;42229;51.230;6.240;2023-05-23T07:29:05;16.50;99.90
27647;DHT22;42229;51.230;6.240;2023-05-23T07:31:32;16.50;99.90
27647;DHT22;42229;51.230;6.240;2023-05-23T07:33:59;16.40;99.90
27647;DHT22;42229;51.230;6.240;2023-05-23T07:36:32;16.40;99.90
27647;DHT22;42229;51.230;6.240;2023-05-23T07:39:00;16.30;99.90
27647;DHT22;42229;51.230;6.240;2023-05-23T07:41:27;16.40;99.90
27647;DHT22;42229;51.230;6.240;2023-05-23T07:43:53;16.30;99.90
27647;DHT22;42229;51.230;6.240;2023-05-23T07:46:19;16.20;99.90
27647;DHT22;42229;51.230;6.240;2023-05-23T07:48:47;16.20;99.90
27647;DHT22;42229;51.230;6.240;2023-05-23T07:51:14;16.20;99.90
27647;DHT22;42229;51.230;6.240;2023-05-23T07:53:40;16.10;99.90
27647;DHT22;42229;51.230;6.240;2023-05-23T07:56:11;16.00;99.90
27647;DHT22;42229;51.230;6.240;2023-05-23T07:58:39;16.00;99.90
27647;DHT22;42229;51.230;6.240;2023-05-23T08:01:06;15.90;99.90
27647;DHT22;42229;51.230;6.240;2023-05-23T08:03:51;15.90;99.90
27647;DHT22;42229;51.230;6.240;2023-05-23T08:06:24;15.80;99.90
27647;DHT22;42229;51.230;6.240;2023-05-23T08:08:51;15.80;99.90
27647;DHT22;42229;51.230;6.240;2023-05-23T08:11:17;15.80;99.90
27647;DHT22;42229;51.230;6.240;2023-05-23T08:13:48;15.80;99.90
27647;DHT22;42229;51.230;6.240;2023-05-23T08:16:33;15.80;99.90
27647;DHT22;42229;51.230;6.240;2023-05-23T08:19:00;15.80;99.90
27647;DHT22;42229;51.230;6.240;2023-05-23T08:21:27;15.80;99.90
27647;DHT22;42229;51.230;6.240;2023-05-23T08:23:53;15.90;99.90
27647;DHT22;42229;51.230;6.240;2023-05-23T08:26:19;15.90;99.90
27647;DHT22;42229;51.230;6.240;2023-05-23T08:28:47;15.90;99.90
27647;DHT22;42229;51.230;6.240;2023-05-23T08:31:13;15.90;99.90
27647;DHT22;42229;51.230;6.240;2023-05-23T08:33:40;16.00;99.90
27647;DHT22;42229;51.230;6.240;2023-05-23T08:36:06;16.00;99.90
27647;DHT22;42229;51.230;6.240;2023-05-23T08:38:32;16.00;99.90
27647;DHT22;42229;51.230;6.240;2023-05-23T08:41:32;16.10;99.90
27647;DHT22;42229;51.230;6.240;2023-05-23T08:44:04;16.10;99.90
27647;DHT22;42229;51.230;6.240;2023-05-23T08:46:43;16.10;99.90
27647;DHT22;42229;51.230;6.240;2023-05-23T08:49:13;16.10;99.90
27647;DHT22;42229;51.230;6.240;2023-05-23T08:51:42;16.10;99.90
27647;DHT22;42229;51.230;6.240;2023-05-23T08:54:15;16.10;99.90
27647;DHT22;42229;51.230;6.240;2023-05-23T08:56:42;16.10;99.90
27647;DHT22;42229;51.230;6.240;2023-05-23T08:59:08;16.00;99.90
27647;DHT22;42229;51.230;6.240;2023-05-23T09:01:36;16.00;99.90
27647;DHT22;42229;51.230;6.240;2023-05-23T09:04:05;16.00;99.90
27647;DHT22;42229;51.230;6.240;2023-05-23T09:07:04;16.00;99.90
27647;DHT22;42229;51.230;6.240;2023-05-23T09:09:32;16.00;99.90
27647;DHT22;42229;51.230;6.240;2023-05-23T09:12:03;16.00;99.90
27647;DHT22;42229;51.230;6.240;2023-05-23T09:14:30;16.10;99.90
27647;DHT22;42229;51.230;6.240;2023-05-23T09:17:00;16.10;99.90
27647;DHT22;42229;51.230;6.240;2023-05-23T09:19:27;16.10;99.90
27647;DHT22;42229;51.230;6.240;2023-05-23T09:22:01;16.10;99.90
27647;DHT22;42229;51.230;6.240;2023-05-23T09:24:34;16.10;99.90
27647;DHT22;42229;51.230;6.240;2023-05-23T09:27:04;16.10;99.90
27647;DHT22;42229;51.230;6.240;2023-05-23T09:29:31;16.10;99.90
27647;DHT22;42229;51.230;6.240;2023-05-23T09:32:14;16.20;99.90
27647;DHT22;42229;51.230;6.240;2023-05-23T09:34:41;16.30;99.90
27647;DHT22;42229;51.230;6.240;2023-05-23T09:37:10;16.40;99.90
27647;DHT22;42229;51.230;6.240;2023-05-23T09:39:38;16.50;99.90
27647;DHT22;42229;51.230;6.240;2023-05-23T09:42:04;16.60;99.90
27647;DHT22;42229;51.230;6.240;2023-05-23T09:44:31;16.80;99.90
27647;DHT22;42229;51.230;6.240;2023-05-23T09:46:57;17.00;99.90
27647;DHT22;42229;51.230;6.240;2023-05-23T09:49:25;17.10;99.90
27647;DHT22;42229;51.230;6.240;2023-05-23T09:51:58;17.30;99.90
27647;DHT22;42229;51.230;6.240;2023-05-23T09:54:25;17.60;99.90
27647;DHT22;42229;51.230;6.240;2023-05-23T09:56:51;17.80;99.90
27647;DHT22;42229;51.230;6.240;2023-05-23T09:59:19;18.10;99.90
27647;DHT22;42229;51.230;6.240;2023-05-23T10:01:50;18.30;99.90
27647;DHT22;42229;51.230;6.240;2023-05-23T10:04:19;18.50;99.90
27647;DHT22;42229;51.230;6.240;2023-05-23T10:06:49;18.80;99.30
27647;DHT22;42229;51.230;6.240;2023-05-23T10:09:25;18.90;99.80
27647;DHT22;42229;51.230;6.240;2023-05-23T10:14:42;19.10;99.90
27647;DHT22;42229;51.230;6.240;2023-05-23T10:20:20;19.40;99.90
27647;DHT22;42229;51.230;6.240;2023-05-23T10:22:48;19.50;99.70
27647;DHT22;42229;51.230;6.240;2023-05-23T10:25:15;19.60;98.20
27647;DHT22;42229;51.230;6.240;2023-05-23T10:27:42;19.60;97.40
27647;DHT22;42229;51.230;6.240;2023-05-23T10:30:08;19.70;98.70
27647;DHT22;42229;51.230;6.240;2023-05-23T10:32:36;19.70;97.70
27647;DHT22;42229;51.230;6.240;2023-05-23T10:46:20;19.60;98.20
27647;DHT22;42229;51.230;6.240;2023-05-23T10:48:47;19.70;97.90
27647;DHT22;42229;51.230;6.240;2023-05-23T10:51:14;19.70;97.80
27647;DHT22;42229;51.230;6.240;2023-05-23T10:53:41;19.80;97.30
27647;DHT22;42229;51.230;6.240;2023-05-23T10:56:23;19.80;97.40
27647;DHT22;42229;51.230;6.240;2023-05-23T10:58:53;19.70;97.00
27647;DHT22;42229;51.230;6.240;2023-05-23T11:01:20;19.70;96.90
27647;DHT22;42229;51.230;6.240;2023-05-23T11:11:51;19.80;97.50
27647;DHT22;42229;51.230;6.240;2023-05-23T11:19:58;20.00;96.70
27647;DHT22;42229;51.230;6.240;2023-05-23T11:22:30;20.00;96.80
27647;DHT22;42229;51.230;6.240;2023-05-23T11:24:57;20.00;96.70
27647;DHT22;42229;51.230;6.240;2023-05-23T11:30:01;20.10;96.70
27647;DHT22;42229;51.230;6.240;2023-05-23T11:32:29;20.20;97.00
27647;DHT22;42229;51.230;6.240;2023-05-23T11:35:03;20.30;97.30
27647;DHT22;42229;51.230;6.240;2023-05-23T11:37:33;20.50;97.00
27647;DHT22;42229;51.230;6.240;2023-05-23T11:40:23;20.60;96.40
27647;DHT22;42229;51.230;6.240;2023-05-23T11:42:55;20.60;96.20
27647;DHT22;42229;51.230;6.240;2023-05-23T11:45:21;20.70;95.70
27647;DHT22;42229;51.230;6.240;2023-05-23T11:47:48;20.70;95.00
27647;DHT22;42229;51.230;6.240;2023-05-23T11:50:14;20.70;96.00
27647;DHT22;42229;51.230;6.240;2023-05-23T11:52:41;20.70;95.90
27647;DHT22;42229;51.230;6.240;2023-05-23T11:55:07;20.60;96.00
27647;DHT22;42229;51.230;6.240;2023-05-23T11:57:37;20.60;96.00
27647;DHT22;42229;51.230;6.240;2023-05-23T12:00:05;20.70;96.50
27647;DHT22;42229;51.230;6.240;2023-05-23T12:02:40;20.80;94.80
27647;DHT22;42229;51.230;6.240;2023-05-23T12:05:07;20.90;94.70
27647;DHT22;42229;51.230;6.240;2023-05-23T12:07:34;21.00;94.60
27647;DHT22;42229;51.230;6.240;2023-05-23T12:10:02;21.20;94.40
27647;DHT22;42229;51.230;6.240;2023-05-23T12:12:30;21.40;94.50
27647;DHT22;42229;51.230;6.240;2023-05-23T12:14:56;21.60;94.60
27647;DHT22;42229;51.230;6.240;2023-05-23T12:17:23;21.70;94.20
27647;DHT22;42229;51.230;6.240;2023-05-23T12:19:51;21.80;94.30
27647;DHT22;42229;51.230;6.240;2023-05-23T12:22:23;21.80;92.50
27647;DHT22;42229;51.230;6.240;2023-05-23T12:24:52;22.00;94.10
27647;DHT22;42229;51.230;6.240;2023-05-23T12:27:26;22.30;94.40
27647;DHT22;42229;51.230;6.240;2023-05-23T12:32:39;22.90;91.90
27647;DHT22;42229;51.230;6.240;2023-05-23T12:35:07;23.10;94.00
27647;DHT22;42229;51.230;6.240;2023-05-23T12:37:37;23.20;93.80
27647;DHT22;42229;51.230;6.240;2023-05-23T12:42:50;23.20;92.30
27647;DHT22;42229;51.230;6.240;2023-05-23T12:45:39;23.20;93.00
27647;DHT22;42229;51.230;6.240;2023-05-23T12:48:04;23.20;91.80
27647;DHT22;42229;51.230;6.240;2023-05-23T12:50:32;23.20;92.50
27647;DHT22;42229;51.230;6.240;2023-05-23T12:52:58;23.20;92.30
27647;DHT22;42229;51.230;6.240;2023-05-23T12:55:24;23.20;91.90
27647;DHT22;42229;51.230;6.240;2023-05-23T12:57:51;23.20;91.80
27647;DHT22;42229;51.230;6.240;2023-05-23T13:00:17;23.20;92.80
27647;DHT22;42229;51.230;6.240;2023-05-23T13:02:44;23.40;92.10
27647;DHT22;42229;51.230;6.240;2023-05-23T13:05:10;23.60;90.30
27647;DHT22;42229;51.230;6.240;2023-05-23T13:07:37;23.90;90.70
27647;DHT22;42229;51.230;6.240;2023-05-23T13:10:03;24.20;91.10
27647;DHT22;42229;51.230;6.240;2023-05-23T13:12:30;24.50;86.50
27647;DHT22;42229;51.230;6.240;2023-05-23T13:14:57;24.70;90.50
27647;DHT22;42229;51.230;6.240;2023-05-23T13:17:24;24.90;90.30
27647;DHT22;42229;51.230;6.240;2023-05-23T13:19:50;25.00;88.20
27647;DHT22;42229;51.230;6.240;2023-05-23T13:22:16;25.10;85.20
27647;DHT22;42229;51.230;6.240;2023-05-23T13:24:42;25.10;88.90
27647;DHT22;42229;51.230;6.240;2023-05-23T13:27:09;25.00;85.10
27647;DHT22;42229;51.230;6.240;2023-05-23T13:29:35;25.00;87.20
27647;DHT22;42229;51.230;6.240;2023-05-23T13:32:01;24.90;85.40
27647;DHT22;42229;51.230;6.240;2023-05-23T13:34:28;24.70;87.70
27647;DHT22;42229;51.230;6.240;2023-05-23T13:36:54;24.50;88.50
27647;DHT22;42229;51.230;6.240;2023-05-23T13:39:20;24.40;87.60
27647;DHT22;42229;51.230;6.240;2023-05-23T13:41:48;24.10;85.90
27647;DHT22;42229;51.230;6.240;2023-05-23T13:44:14;23.90;86.20
27647;DHT22;42229;51.230;6.240;2023-05-23T13:46:41;23.70;87.20
27647;DHT22;42229;51.230;6.240;2023-05-23T13:49:08;23.50;84.70
27647;DHT22;42229;51.230;6.240;2023-05-23T13:51:34;23.30;83.80
27647;DHT22;42229;51.230;6.240;2023-05-23T13:54:04;23.20;86.20
27647;DHT22;42229;51.230;6.240;2023-05-23T13:56:31;23.10;85.90
27647;DHT22;42229;51.230;6.240;2023-05-23T13:58:58;22.90;85.00
27647;DHT22;42229;51.230;6.240;2023-05-23T14:01:24;22.80;85.40
27647;DHT22;42229;51.230;6.240;2023-05-23T14:03:50;22.70;85.80
27647;DHT22;42229;51.230;6.240;2023-05-23T14:06:17;22.60;85.60
27647;DHT22;42229;51.230;6.240;2023-05-23T14:08:43;22.60;83.50
27647;DHT22;42229;51.230;6.240;2023-05-23T14:11:09;22.70;86.40
27647;DHT22;42229;51.230;6.240;2023-05-23T14:13:36;22.90;86.50
27647;DHT22;42229;51.230;6.240;2023-05-23T14:16:05;23.10;84.80
27647;DHT22;42229;51.230;6.240;2023-05-23T14:18:31;23.40;88.60
27647;DHT22;42229;51.230;6.240;2023-05-23T14:20:57;23.80;88.70
27647;DHT22;42229;51.230;6.240;2023-05-23T14:23:23;24.10;84.40
27647;DHT22;42229;51.230;6.240;2023-05-23T14:25:50;24.30;85.90
27647;DHT22;42229;51.230;6.240;2023-05-23T14:28:16;24.40;85.80
27647;DHT22;42229;51.230;6.240;2023-05-23T14:30:43;24.50;85.80
27647;DHT22;42229;51.230;6.240;2023-05-23T14:33:09;24.40;85.40
27647;DHT22;42229;51.230;6.240;2023-05-23T14:35:38;24.40;84.50
27647;DHT22;42229;51.230;6.240;2023-05-23T14:38:04;24.30;84.90
27647;DHT22;42229;51.230;6.240;2023-05-23T14:40:33;24.10;84.00
27647;DHT22;42229;51.230;6.240;2023-05-23T14:42:59;24.00;84.00
27647;DHT22;42229;51.230;6.240;2023-05-23T14:45:25;23.90;81.80
27647;DHT22;42229;51.230;6.240;2023-05-23T14:47:52;23.70;83.00
27647;DHT22;42229;51.230;6.240;2023-05-23T14:50:18;23.60;83.20
27647;DHT22;42229;51.230;6.240;2023-05-23T14:52:44;23.30;78.80
27647;DHT22;42229;51.230;6.240;2023-05-23T14:55:10;23.10;82.10
27647;DHT22;42229;51.230;6.240;2023-05-23T14:57:37;23.00;80.20
27647;DHT22;42229;51.230;6.240;2023-05-23T15:00:04;22.80;82.10
27647;DHT22;42229;51.230;6.240;2023-05-23T15:02:36;22.70;81.50
27647;DHT22;42229;51.230;6.240;2023-05-23T15:05:05;22.60;79.70
27647;DHT22;42229;51.230;6.240;2023-05-23T15:07:31;22.40;80.80
27647;DHT22;42229;51.230;6.240;2023-05-23T15:09:58;22.30;80.40
27647;DHT22;42229;51.230;6.240;2023-05-23T15:12:24;22.20;80.50
27647;DHT22;42229;51.230;6.240;2023-05-23T15:14:50;22.10;80.20
27647;DHT22;42229;51.230;6.240;2023-05-23T15:17:16;22.00;78.80
27647;DHT22;42229;51.230;6.240;2023-05-23T15:19:45;22.00;78.50
27647;DHT22;42229;51.230;6.240;2023-05-23T15:22:11;22.00;80.10
27647;DHT22;42229;51.230;6.240;2023-05-23T15:24:38;22.10;80.30
27647;DHT22;42229;51.230;6.240;2023-05-23T15:27:04;22.20;80.20
27647;DHT22;42229;51.230;6.240;2023-05-23T15:29:30;22.30;79.40
27647;DHT22;42229;51.230;6.240;2023-05-23T15:31:58;22.30;79.00
27647;DHT22;42229;51.230;6.240;2023-05-23T15:34:25;22.30;79.50
27647;DHT22;42229;51.230;6.240;2023-05-23T15:36:52;22.20;79.60
27647;DHT22;42229;51.230;6.240;2023-05-23T15:39:18;22.20;77.70
27647;DHT22;42229;51.230;6.240;2023-05-23T15:41:44;22.10;78.80
27647;DHT22;42229;51.230;6.240;2023-05-23T15:44:11;22.00;79.50
27647;DHT22;42229;51.230;6.240;2023-05-23T15:46:38;22.00;77.90
27647;DHT22;42229;51.230;6.240;2023-05-23T15:49:04;21.90;78.60
27647;DHT22;42229;51.230;6.240;2023-05-23T15:51:30;21.90;78.00
27647;DHT22;42229;51.230;6.240;2023-05-23T15:53:57;22.00;80.30
27647;DHT22;42229;51.230;6.240;2023-05-23T15:56:23;22.20;79.50
27647;DHT22;42229;51.230;6.240;2023-05-23T15:58:49;22.30;80.10
27647;DHT22;42229;51.230;6.240;2023-05-23T16:01:16;22.40;78.30
27647;DHT22;42229;51.230;6.240;2023-05-23T16:03:42;22.50;77.70
27647;DHT22;42229;51.230;6.240;2023-05-23T16:06:08;22.70;79.30
27647;DHT22;42229;51.230;6.240;2023-05-23T16:08:34;22.80;78.60
27647;DHT22;42229;51.230;6.240;2023-05-23T16:11:01;22.90;80.20
27647;DHT22;42229;51.230;6.240;2023-05-23T16:13:27;23.10;79.80
27647;DHT22;42229;51.230;6.240;2023-05-23T16:15:53;23.20;80.20
27647;DHT22;42229;51.230;6.240;2023-05-23T16:18:19;23.30;79.90
27647;DHT22;42229;51.230;6.240;2023-05-23T16:20:45;23.50;78.20